Time;durP1;ratioP1;P1;durP2;ratioP2;P2;SDS_P1;SDS_P2;PMS_P1;PMS_P2;Temp;Humidity;BMP_temperature;BMP_pressure;BME280_temperature;BME280_humidity;BME280_pressure;Samples;Min_cycle;Max_cycle;Signal;HPM_P1;HPM_P2
2023/12/08 00:00:45;;;;;;;36.60;21.70;;;;;;;-2.55;75.64;100069.84;106659;1269;161884;-39
2023/12/08 00:03:13;;;;;;;32.00;19.60;;;;;;;-2.48;75.55;100068.88;106848;1264;60011;-38
2023/12/08 00:05:41;;;;;;;30.80;20.10;;;;;;;-2.41;75.17;100067.70;106824;1264;72224;-39
2023/12/08 00:08:09;;;;;;;33.60;20.20;;;;;;;-2.42;75.26;100064.09;106764;1264;67391;-39
2023/12/08 00:10:37;;;;;;;30.00;19.90;;;;;;;-2.47;75.28;100065.54;106801;1264;73117;-39
2023/12/08 00:13:04;;;;;;;34.60;21.40;;;;;;;-2.52;75.25;100065.30;106812;1264;60206;-39
2023/12/08 00:15:32;;;;;;;35.10;20.70;;;;;;;-2.56;75.39;100059.77;106754;1263;59605;-39
2023/12/08 00:17:59;;;;;;;31.90;20.50;;;;;;;-2.62;75.46;100062.16;106820;1267;71868;-39
2023/12/08 00:20:27;;;;;;;31.90;20.40;;;;;;;-2.67;75.97;100060.05;106759;1264;67443;-39
2023/12/08 00:22:55;;;;;;;30.80;19.00;;;;;;;-2.62;75.72;100061.25;106763;1267;71202;-39
2023/12/08 00:25:23;;;;;;;26.90;18.10;;;;;;;-2.57;75.81;100058.79;106787;1264;59547;-38
2023/12/08 00:27:50;;;;;;;33.10;20.60;;;;;;;-2.60;75.74;100056.27;106275;1260;1002718;-39
2023/12/08 00:30:18;;;;;;;28.00;18.30;;;;;;;-2.63;76.34;100053.93;106991;1260;73015;-39
2023/12/08 00:32:46;;;;;;;31.00;19.00;;;;;;;-2.64;76.21;100049.30;107010;1261;66351;-39
2023/12/08 00:35:14;;;;;;;31.20;20.40;;;;;;;-2.65;76.58;100046.00;107000;1263;72678;-39
2023/12/08 00:37:41;;;;;;;31.50;19.00;;;;;;;-2.67;76.39;100046.26;106960;1261;59584;-39
2023/12/08 00:40:11;;;;;;;30.60;18.20;;;;;;;-2.67;76.42;100046.14;107026;1258;60053;-39
2023/12/08 00:42:38;;;;;;;26.40;18.70;;;;;;;-2.65;76.32;100046.84;107092;1261;73021;-39
2023/12/08 00:45:06;;;;;;;29.50;18.90;;;;;;;-2.66;76.68;100042.48;106983;1265;66394;-39
2023/12/08 00:47:33;;;;;;;30.20;19.40;;;;;;;-2.67;77.15;100042.54;106242;1261;1003659;-39
2023/12/08 00:50:01;;;;;;;27.40;18.80;;;;;;;-2.61;77.10;100042.30;106972;1265;60240;-39
2023/12/08 00:52:29;;;;;;;26.50;17.50;;;;;;;-2.58;77.09;100041.05;106978;1260;60055;-39
2023/12/08 00:54:56;;;;;;;31.60;19.10;;;;;;;-2.56;76.93;100043.23;106985;1261;72993;-39
2023/12/08 00:57:24;;;;;;;29.10;19.00;;;;;;;-2.49;76.68;100040.52;106961;1260;66750;-39
2023/12/08 00:59:52;;;;;;;27.80;18.20;;;;;;;-2.42;76.58;100041.09;107065;1261;73054;-39
2023/12/08 01:02:19;;;;;;;28.90;19.00;;;;;;;-2.39;76.70;100039.62;106971;1266;59640;-39
2023/12/08 01:04:47;;;;;;;28.50;18.40;;;;;;;-2.37;76.72;100028.53;106983;1259;60262;-39
2023/12/08 01:07:15;;;;;;;30.50;18.60;;;;;;;-2.40;76.29;100032.35;106967;1261;73035;-39
2023/12/08 01:09:42;;;;;;;28.80;19.00;;;;;;;-2.43;76.35;100031.54;106232;1261;1002507;-39
2023/12/08 01:12:10;;;;;;;33.30;19.70;;;;;;;-2.47;76.31;100030.92;107022;1260;71851;-39
2023/12/08 01:14:37;;;;;;;27.30;17.40;;;;;;;-2.44;76.13;100029.89;106988;1265;60877;-39
2023/12/08 01:17:05;;;;;;;28.90;17.70;;;;;;;-2.37;76.29;100020.56;107019;1259;59992;-39
2023/12/08 01:19:32;;;;;;;25.10;17.10;;;;;;;-2.37;76.31;100013.18;107024;1260;73105;-39
2023/12/08 01:22:00;;;;;;;28.10;18.10;;;;;;;-2.35;76.56;100010.44;107034;1260;68079;-39
2023/12/08 01:24:27;;;;;;;29.80;19.00;;;;;;;-2.35;76.46;100012.23;105487;1261;1006885;-39
2023/12/08 01:26:55;;;;;;;28.20;18.50;;;;;;;-2.36;76.46;100009.36;106971;1261;59580;-39
2023/12/08 01:29:23;;;;;;;29.90;17.80;;;;;;;-2.37;76.51;100009.73;106953;1260;60007;-39
2023/12/08 01:31:50;;;;;;;27.20;17.80;;;;;;;-2.37;76.43;100012.28;106987;1259;73003;-39
2023/12/08 01:34:18;;;;;;;27.80;17.40;;;;;;;-2.32;76.30;100015.98;106962;1261;67536;-40
2023/12/08 01:36:45;;;;;;;26.90;17.50;;;;;;;-2.24;76.10;100013.35;107006;1261;72642;-39
2023/12/08 01:39:13;;;;;;;26.50;17.70;;;;;;;-2.24;76.20;100015.38;106960;1261;59643;-39
2023/12/08 01:41:41;;;;;;;25.70;18.00;;;;;;;-2.24;76.11;100012.41;106990;1260;60019;-39
2023/12/08 01:44:09;;;;;;;29.50;18.20;;;;;;;-2.26;76.13;100016.05;107007;1261;73025;-39
2023/12/08 01:46:37;;;;;;;26.30;18.50;;;;;;;-2.30;76.42;100014.13;106847;1260;68255;-39
2023/12/08 01:49:05;;;;;;;30.40;18.30;;;;;;;-2.32;76.35;100012.14;106982;1266;72355;-39
2023/12/08 01:51:33;;;;;;;28.80;18.40;;;;;;;-2.32;76.44;100014.75;106955;1263;60859;-39
2023/12/08 01:54:01;;;;;;;24.50;16.30;;;;;;;-2.26;76.40;100010.73;106946;1261;60055;-39
2023/12/08 01:56:28;;;;;;;24.30;17.10;;;;;;;-2.20;76.21;100008.27;106969;1260;73382;-39
2023/12/08 01:58:56;;;;;;;27.50;17.60;;;;;;;-2.20;76.51;100004.45;106979;1261;66432;-39
2023/12/08 02:01:23;;;;;;;25.90;18.10;;;;;;;-2.18;76.61;100006.80;106935;1261;71365;-39
2023/12/08 02:03:51;;;;;;;27.00;18.00;;;;;;;-2.30;76.31;99997.34;106867;1261;59539;-39
2023/12/08 02:06:19;;;;;;;28.10;18.50;;;;;;;-2.26;76.32;100009.98;106945;1260;60034;-39
2023/12/08 02:08:47;;;;;;;27.50;17.60;;;;;;;-2.28;76.74;100006.49;106985;1260;72275;-39
2023/12/08 02:11:15;;;;;;;24.60;16.90;;;;;;;-2.26;76.45;100010.27;107007;1261;66314;-39
2023/12/08 02:13:45;;;;;;;;;;;;;;;-2.19;76.44;100010.56;107001;1261;72723;-39
2023/12/08 02:16:18;;;;;;;23.60;16.80;;;;;;;-2.16;76.42;100011.48;107181;1257;59743;-39
2023/12/08 02:18:46;;;;;;;24.60;16.80;;;;;;;-2.16;76.80;100006.90;107340;1255;60121;-39
2023/12/08 02:21:14;;;;;;;25.40;16.60;;;;;;;-2.17;76.76;100005.41;107250;1257;73044;-39
2023/12/08 02:23:45;;;;;;;27.50;18.10;;;;;;;-2.17;76.94;100005.57;107184;1256;67558;-39
2023/12/08 02:26:13;;;;;;;25.90;17.60;;;;;;;-2.16;76.93;100010.41;107265;1260;72662;-39
2023/12/08 02:28:40;;;;;;;26.50;17.40;;;;;;;-2.16;76.83;100011.56;107188;1260;60892;-39
2023/12/08 02:31:10;;;;;;;22.20;16.20;;;;;;;-2.10;76.67;100007.14;107243;1260;60193;-39
2023/12/08 02:33:38;;;;;;;22.70;15.80;;;;;;;-2.03;76.34;100011.83;107254;1257;73093;-39
2023/12/08 02:36:06;;;;;;;22.80;16.10;;;;;;;-2.04;76.42;100013.96;107043;1258;67588;-39
2023/12/08 02:38:34;;;;;;;23.40;16.90;;;;;;;-2.08;76.57;100011.55;107276;1260;72663;-39
2023/12/08 02:41:01;;;;;;;23.70;17.00;;;;;;;-2.09;76.68;100014.75;107263;1258;59858;-39
2023/12/08 02:43:29;;;;;;;24.80;17.80;;;;;;;-2.10;76.74;100017.19;107225;1260;59634;-39
2023/12/08 02:45:56;;;;;;;24.40;16.50;;;;;;;-2.12;76.66;100019.56;107139;1257;72621;-39
2023/12/08 02:48:24;;;;;;;21.90;14.90;;;;;;;-2.15;76.60;100019.39;107253;1257;66618;-38
2023/12/08 02:50:51;;;;;;;22.50;15.80;;;;;;;-2.17;76.54;100010.35;107197;1258;73017;-39
2023/12/08 02:53:19;;;;;;;20.90;14.60;;;;;;;-2.04;76.50;100015.89;107192;1260;59563;-38
2023/12/08 02:55:46;;;;;;;23.90;15.90;;;;;;;-2.02;76.49;100015.82;107198;1260;60114;-38
2023/12/08 02:58:14;;;;;;;22.70;16.80;;;;;;;-2.04;76.57;100016.20;107189;1255;73550;-38
2023/12/08 03:00:41;;;;;;;26.40;17.00;;;;;;;-2.09;76.54;100018.30;107246;1260;67527;-38
2023/12/08 03:03:09;;;;;;;22.20;16.90;;;;;;;-2.11;77.03;100017.59;107285;1260;72779;-38
2023/12/08 03:05:37;;;;;;;26.30;16.60;;;;;;;-2.11;76.84;100014.89;107287;1260;59580;-38
2023/12/08 03:08:04;;;;;;;24.30;16.30;;;;;;;-2.10;76.75;100013.36;107191;1260;60550;-38
2023/12/08 03:10:31;;;;;;;22.90;16.00;;;;;;;-2.01;76.90;100012.11;107196;1263;73073;-38
2023/12/08 03:12:59;;;;;;;22.90;15.70;;;;;;;-1.93;76.50;100005.59;107274;1258;67567;-38
2023/12/08 03:15:27;;;;;;;20.70;15.40;;;;;;;-1.96;76.49;100002.35;107237;1258;72752;-38
2023/12/08 03:17:54;;;;;;;27.00;16.90;;;;;;;-2.01;76.52;100003.35;107260;1257;59667;-38
2023/12/08 03:20:22;;;;;;;24.90;17.00;;;;;;;-2.07;76.73;100001.68;107285;1258;59641;-38
2023/12/08 03:22:49;;;;;;;24.30;17.00;;;;;;;-2.13;76.93;100002.92;107256;1263;73082;-38
2023/12/08 03:25:17;;;;;;;24.30;16.30;;;;;;;-2.19;77.06;99997.98;107200;1260;67588;-38
2023/12/08 03:27:44;;;;;;;24.60;15.90;;;;;;;-2.16;77.24;99999.25;107237;1258;72042;-38
2023/12/08 03:30:13;;;;;;;22.60;16.30;;;;;;;-2.10;77.10;99998.64;107293;1255;59522;-38
2023/12/08 03:32:41;;;;;;;23.90;16.30;;;;;;;-2.11;77.30;100004.20;107322;1255;60002;-38
2023/12/08 03:35:08;;;;;;;22.40;15.90;;;;;;;-2.13;77.54;100003.04;107260;1256;73029;-38
2023/12/08 03:37:36;;;;;;;25.40;17.70;;;;;;;-2.14;77.72;100004.06;107252;1257;68176;-38
2023/12/08 03:40:04;;;;;;;27.10;17.60;;;;;;;-2.16;77.77;99999.95;107293;1257;73152;-38
2023/12/08 03:42:36;;;;;;;24.50;16.10;;;;;;;-2.16;77.78;99998.88;107277;1260;59366;-39
2023/12/08 03:45:05;;;;;;;21.40;14.90;;;;;;;-2.08;77.60;99998.01;106517;1257;1002747;-39
2023/12/08 03:47:32;;;;;;;23.20;15.90;;;;;;;-2.05;77.56;99996.91;107318;1257;73043;-39
2023/12/08 03:50:00;;;;;;;25.30;17.00;;;;;;;-2.03;77.77;99997.45;107296;1257;67936;-39
2023/12/08 03:52:28;;;;;;;23.50;16.20;;;;;;;-2.03;78.03;99996.64;107242;1257;71369;-38
2023/12/08 03:54:55;;;;;;;24.70;17.20;;;;;;;-2.01;78.19;99995.27;107244;1260;60376;-39
2023/12/08 03:57:23;;;;;;;22.70;16.60;;;;;;;-2.02;78.03;99992.07;107265;1257;59673;-38
2023/12/08 03:59:51;;;;;;;24.00;15.80;;;;;;;-2.03;77.85;99994.79;107217;1257;73842;-38
2023/12/08 04:02:19;;;;;;;23.10;15.90;;;;;;;-2.01;77.47;99998.19;107206;1261;67704;-38
2023/12/08 04:04:46;;;;;;;21.70;14.80;;;;;;;-2.04;77.69;99996.70;107214;1260;72960;-38
2023/12/08 04:07:14;;;;;;;23.90;16.50;;;;;;;-2.05;77.99;99999.94;107199;1261;59378;-38
2023/12/08 04:09:41;;;;;;;26.30;16.10;;;;;;;-2.04;78.22;99997.19;107208;1256;60062;-38
2023/12/08 04:12:09;;;;;;;24.70;16.30;;;;;;;-2.03;78.25;99999.41;107186;1257;73946;-39
2023/12/08 04:14:36;;;;;;;21.40;14.80;;;;;;;-2.03;78.18;99996.97;107201;1258;66806;-38
2023/12/08 04:17:04;;;;;;;19.90;14.20;;;;;;;-1.93;77.96;99997.99;107202;1261;72694;-38
2023/12/08 04:19:32;;;;;;;20.80;15.30;;;;;;;-1.85;77.68;99999.95;107207;1258;60447;-38
2023/12/08 04:21:59;;;;;;;23.00;16.10;;;;;;;-1.89;77.71;99994.19;107235;1255;59589;-38
2023/12/08 04:24:27;;;;;;;23.00;15.40;;;;;;;-1.91;77.77;99996.73;107196;1261;73823;-38
2023/12/08 04:26:55;;;;;;;23.50;15.90;;;;;;;-1.94;77.82;99995.92;107206;1263;67546;-39
2023/12/08 04:29:22;;;;;;;20.80;15.30;;;;;;;-1.96;77.92;99992.26;107216;1258;72652;-38
2023/12/08 04:31:50;;;;;;;23.60;15.60;;;;;;;-1.96;78.00;99993.20;107192;1257;60496;-38
2023/12/08 04:34:17;;;;;;;21.20;14.30;;;;;;;-1.91;77.90;99991.10;107209;1260;60571;-38
2023/12/08 04:36:45;;;;;;;20.40;15.30;;;;;;;-1.87;77.69;99994.67;107226;1256;73807;-38
2023/12/08 04:39:13;;;;;;;20.90;14.90;;;;;;;-1.87;77.92;99993.23;107259;1260;67554;-38
2023/12/08 04:41:40;;;;;;;23.70;15.80;;;;;;;-1.91;78.05;99993.49;107242;1260;72124;-38
2023/12/08 04:44:08;;;;;;;21.90;15.70;;;;;;;-1.94;77.98;99992.85;107209;1263;59297;-39
2023/12/08 04:46:35;;;;;;;24.90;16.20;;;;;;;-1.99;78.04;99989.96;107230;1261;60370;-38
2023/12/08 04:49:03;;;;;;;23.20;15.00;;;;;;;-2.00;77.84;99988.95;107196;1258;73806;-37
2023/12/08 04:51:31;;;;;;;22.80;15.40;;;;;;;-1.96;77.74;99988.80;107205;1261;66289;-39
2023/12/08 07:22:32;;;;;;;18.40;11.90;;;;;;;-1.11;77.64;99998.52;107078;1258;72792;-40
2023/12/08 07:25:07;;;;;;;21.10;14.70;;;;;;;-1.11;77.58;99994.53;106445;1257;1003244;-38
2023/12/08 07:27:34;;;;;;;23.40;16.20;;;;;;;-1.17;77.88;99993.41;107219;1257;60420;-39
2023/12/08 07:30:03;;;;;;;26.50;15.80;;;;;;;-1.24;78.06;99993.31;107190;1257;73039;-38
2023/12/08 07:32:31;;;;;;;23.40;15.20;;;;;;;-1.28;78.52;99990.98;107348;1257;65919;-39
2023/12/08 07:34:58;;;;;;;24.60;15.00;;;;;;;-1.24;78.65;99985.39;107182;1257;72738;-38
2023/12/08 07:37:26;;;;;;;22.60;15.20;;;;;;;-1.19;78.49;99978.68;107240;1257;61067;-38
2023/12/08 07:39:54;;;;;;;21.40;15.50;;;;;;;-1.18;78.75;99979.59;107182;1255;60514;-39
2023/12/08 07:42:22;;;;;;;22.30;16.10;;;;;;;-1.16;79.02;99979.59;107174;1257;72862;-38
2023/12/08 07:44:52;;;;;;;21.30;14.00;;;;;;;-1.13;79.00;99974.27;107199;1257;67685;-38
2023/12/08 07:47:20;;;;;;;22.90;14.80;;;;;;;-1.05;78.83;99974.84;107268;1259;72686;-39
2023/12/08 07:49:48;;;;;;;21.20;15.00;;;;;;;-0.99;78.60;99973.40;107140;1261;60450;-38
2023/12/08 07:52:15;;;;;;;24.80;15.40;;;;;;;-0.99;78.67;99974.20;107232;1260;61292;-39
2023/12/08 07:54:43;;;;;;;25.10;16.20;;;;;;;-1.02;78.49;99976.08;107168;1260;73081;-38
2023/12/08 07:57:10;;;;;;;23.70;15.20;;;;;;;-1.01;78.59;99974.52;107189;1257;66671;-39
2023/12/08 07:59:38;;;;;;;26.30;14.80;;;;;;;-0.92;78.42;99972.86;107118;1259;72690;-40
2023/12/08 08:02:06;;;;;;;21.60;14.50;;;;;;;-0.88;78.31;99970.88;107142;1257;61131;-40
2023/12/08 08:04:33;;;;;;;23.90;15.70;;;;;;;-0.87;78.20;99973.21;107140;1257;60447;-39
2023/12/08 08:07:01;;;;;;;24.10;14.40;;;;;;;-0.87;78.21;99970.34;107137;1257;73895;-39
2023/12/08 08:09:29;;;;;;;20.30;13.10;;;;;;;-0.93;77.93;99963.91;107016;1257;67745;-39
2023/12/08 08:11:56;;;;;;;20.10;13.20;;;;;;;-0.80;77.88;99972.51;107140;1263;71825;-39
2023/12/08 08:14:24;;;;;;;20.10;13.30;;;;;;;-0.76;77.91;99967.98;107182;1257;60344;-39
2023/12/08 08:16:51;;;;;;;20.00;13.40;;;;;;;-0.77;77.78;99969.52;107135;1257;60961;-39
2023/12/08 08:19:19;;;;;;;22.00;14.00;;;;;;;-0.80;77.63;99975.87;107145;1256;73956;-39
2023/12/08 08:21:46;;;;;;;19.90;13.30;;;;;;;-0.81;77.43;99971.50;107138;1258;67603;-39
2023/12/08 08:24:34;;;;;;;20.30;13.90;;;;;;;-0.75;77.15;99969.95;107193;1261;71394;-39
2023/12/08 08:27:02;;;;;;;20.40;13.60;;;;;;;-0.75;76.98;99971.65;107169;1257;61122;-39
2023/12/08 08:29:30;;;;;;;17.90;12.60;;;;;;;-0.81;77.12;99968.36;107185;1258;60436;-39
2023/12/08 08:31:58;;;;;;;20.40;13.10;;;;;;;-0.85;77.28;99968.64;107163;1257;73821;-39
2023/12/08 08:34:25;;;;;;;19.30;12.50;;;;;;;-0.83;77.72;99973.33;107164;1257;67585;-39
2023/12/08 08:36:54;;;;;;;18.70;12.40;;;;;;;-0.75;77.46;99968.52;103798;1257;1003574;-39
2023/12/08 08:39:21;;;;;;;16.80;12.00;;;;;;;-0.74;77.26;99970.64;107170;1259;60502;-39
2023/12/08 08:41:49;;;;;;;18.70;12.50;;;;;;;-0.75;77.55;99971.33;107197;1258;60412;-39
2023/12/08 08:44:17;;;;;;;17.00;11.80;;;;;;;-0.76;77.81;99968.35;107193;1256;72626;-39
2023/12/08 08:46:46;;;;;;;16.40;11.10;;;;;;;-0.75;77.37;99965.64;107214;1261;67582;-39
2023/12/08 08:49:13;;;;;;;17.00;11.30;;;;;;;-0.68;77.45;99969.77;107137;1256;71510;-39
2023/12/08 08:51:41;;;;;;;17.10;11.30;;;;;;;-0.68;77.15;99963.49;107139;1257;60210;-37
2023/12/08 08:54:09;;;;;;;20.10;12.20;;;;;;;-0.73;76.67;99959.08;107149;1257;60180;-38
2023/12/08 08:56:37;;;;;;;16.90;11.30;;;;;;;-0.76;76.93;99959.14;107151;1256;73781;-38
2023/12/08 08:59:04;;;;;;;14.20;9.90;;;;;;;-0.72;76.41;99957.38;107157;1257;67579;-37
2023/12/08 09:01:33;;;;;;;16.50;11.10;;;;;;;-0.70;76.24;99959.77;107186;1260;71507;-38
2023/12/08 09:04:01;;;;;;;16.90;10.60;;;;;;;-0.73;76.49;99957.38;107149;1260;60405;-38
2023/12/08 09:06:28;;;;;;;15.70;10.80;;;;;;;-0.76;76.41;99955.84;107136;1260;60421;-38
2023/12/08 09:08:56;;;;;;;13.50;9.60;;;;;;;-0.74;76.46;99959.55;107155;1258;73871;-38
2023/12/08 09:11:24;;;;;;;14.10;9.50;;;;;;;-0.65;76.14;99957.94;107296;1257;68079;-38
2023/12/08 09:13:52;;;;;;;14.70;9.50;;;;;;;-0.64;75.96;99955.70;107156;1257;73043;-38
2023/12/08 09:16:19;;;;;;;13.20;10.00;;;;;;;-0.67;75.90;99954.36;107125;1260;60544;-38
2023/12/08 09:18:47;;;;;;;14.90;10.20;;;;;;;-0.69;75.60;99958.92;105667;1257;1003328;-39
2023/12/08 09:21:16;;;;;;;15.30;10.30;;;;;;;-0.74;75.60;99954.13;107148;1257;73821;-39
2023/12/08 09:23:44;;;;;;;11.60;8.80;;;;;;;-0.69;75.52;99954.77;107175;1256;66628;-39
2023/12/08 09:26:11;;;;;;;16.30;9.50;;;;;;;-0.70;75.80;99948.95;107120;1263;70812;-39
2023/12/08 09:28:39;;;;;;;12.10;9.30;;;;;;;-0.74;75.77;99939.23;107202;1257;60523;-39
2023/12/08 09:31:07;;;;;;;12.00;9.00;;;;;;;-0.80;75.50;99938.28;107157;1260;62252;-39
2023/12/08 09:33:34;;;;;;;11.90;8.50;;;;;;;-0.86;75.56;99939.73;107145;1263;72701;-40
2023/12/08 09:36:02;;;;;;;12.20;8.80;;;;;;;-0.84;75.80;99941.86;107165;1257;67591;-39
2023/12/08 09:38:30;;;;;;;16.00;9.40;;;;;;;-0.86;75.72;99943.40;107174;1262;71777;-39
2023/12/08 09:41:04;;;;;;;12.10;9.20;;;;;;;-0.91;76.10;99939.95;107153;1257;61366;-39
2023/12/08 09:43:39;;;;;;;12.20;9.10;;;;;;;-0.95;76.11;99933.04;107178;1257;60422;-39
2023/12/08 09:46:07;;;;;;;12.10;8.80;;;;;;;-0.89;76.09;99924.99;107015;1257;76031;-39
2023/12/08 09:48:37;;;;;;;12.50;9.10;;;;;;;-0.83;76.05;99916.20;107022;1257;65670;-39
2023/12/08 09:51:04;;;;;;;12.20;9.50;;;;;;;-0.83;75.90;99916.00;107152;1256;72724;-39
2023/12/08 09:53:32;;;;;;;14.40;8.70;;;;;;;-0.82;75.95;99917.99;107034;1257;60245;-39
2023/12/08 09:55:59;;;;;;;13.80;9.60;;;;;;;-0.77;75.90;99923.52;107159;1257;60446;-39
2023/12/08 09:58:27;;;;;;;12.90;9.20;;;;;;;-0.69;75.87;99926.32;107138;1262;73833;-39
2023/12/08 10:00:56;;;;;;;11.60;9.10;;;;;;;-0.68;76.07;99927.65;106407;1256;1002682;-39
2023/12/08 10:03:24;;;;;;;13.80;9.40;;;;;;;-0.68;76.27;99929.95;107185;1257;72329;-39
2023/12/08 10:05:53;;;;;;;12.40;9.20;;;;;;;-0.65;76.43;99929.71;107212;1257;60425;-39
2023/12/08 10:08:22;;;;;;;12.10;9.00;;;;;;;-0.56;76.37;99928.71;107156;1257;60022;-39
2023/12/08 10:10:50;;;;;;;11.70;8.00;;;;;;;-0.38;76.22;99930.41;107004;1257;72700;-39
2023/12/08 10:13:18;;;;;;;12.30;9.30;;;;;;;-0.33;75.40;99926.55;107419;1254;68361;-39
2023/12/08 10:15:45;;;;;;;12.80;9.50;;;;;;;-0.34;75.49;99926.09;107429;1259;72669;-39
2023/12/08 10:18:27;;;;;;;15.30;10.40;;;;;;;-0.35;75.36;99928.06;107423;1254;60571;-39
2023/12/08 10:21:17;;;;;;;14.10;9.10;;;;;;;-0.37;75.13;99927.21;107414;1253;60045;-39
2023/12/08 10:23:46;;;;;;;13.50;9.20;;;;;;;-0.33;74.79;99929.91;107468;1254;74548;-39
2023/12/08 10:26:15;;;;;;;14.20;9.70;;;;;;;-0.38;74.78;99925.51;107461;1254;66794;-39
2023/12/08 10:28:43;;;;;;;13.20;10.20;;;;;;;-0.45;75.13;99926.98;107299;1254;71530;-39
2023/12/08 10:31:10;;;;;;;13.10;9.20;;;;;;;-0.51;75.10;99928.29;107429;1254;60398;-39
2023/12/08 10:33:40;;;;;;;12.00;9.40;;;;;;;-0.53;75.28;99930.52;107584;1254;60293;-39
2023/12/08 10:36:09;;;;;;;13.80;9.20;;;;;;;-0.48;75.58;99931.52;107477;1258;74061;-39
2023/12/08 10:38:36;;;;;;;14.90;10.10;;;;;;;-0.49;75.75;99925.62;107511;1254;67583;-39
2023/12/08 10:41:05;;;;;;;12.60;10.00;;;;;;;-0.51;75.83;99931.91;107360;1254;72852;-39
2023/12/08 10:43:32;;;;;;;14.20;10.00;;;;;;;-0.54;75.94;99921.11;107399;1254;60401;-39
2023/12/08 10:46:00;;;;;;;12.50;9.50;;;;;;;-0.52;75.91;99922.33;107435;1254;60435;-39
2023/12/08 10:48:27;;;;;;;13.80;9.70;;;;;;;-0.45;75.44;99922.77;107540;1254;74024;-39
2023/12/08 10:50:56;;;;;;;14.80;10.70;;;;;;;-0.46;75.45;99922.66;107438;1254;66593;-39
2023/12/08 10:53:25;;;;;;;11.60;8.30;;;;;;;-0.48;75.76;99924.48;107470;1254;70461;-39
2023/12/08 10:55:58;;;;;;;13.60;10.20;;;;;;;-0.49;75.96;99924.71;107437;1254;60572;-39
2023/12/08 10:58:26;;;;;;;13.40;9.50;;;;;;;-0.48;75.82;99925.92;107498;1253;60657;-39
2023/12/08 11:00:54;;;;;;;12.00;8.80;;;;;;;-0.40;75.58;99923.23;107438;1254;74007;-39
2023/12/08 11:03:23;;;;;;;14.80;10.20;;;;;;;-0.41;75.45;99922.44;107566;1254;68405;-39
2023/12/08 11:06:11;;;;;;;16.00;10.30;;;;;;;-0.41;75.72;99921.16;107484;1254;71522;-39
2023/12/08 11:08:43;;;;;;;15.50;10.70;;;;;;;-0.43;75.89;99919.46;107410;1254;60298;-39
2023/12/08 11:11:12;;;;;;;13.30;9.40;;;;;;;-0.45;75.88;99913.88;107438;1255;60309;-39
2023/12/08 11:13:47;;;;;;;15.90;11.00;;;;;;;-0.41;76.04;99910.40;107469;1254;73936;-39
2023/12/08 11:16:46;;;;;;;14.50;10.70;;;;;;;-0.43;76.03;99908.38;107476;1254;67939;-39
2023/12/08 11:19:13;;;;;;;19.10;11.70;;;;;;;-0.50;76.18;99911.88;107468;1254;71448;-39
2023/12/08 11:21:41;;;;;;;16.70;11.40;;;;;;;-0.49;76.71;99914.95;107432;1254;60419;-39
2023/12/08 11:24:09;;;;;;;13.50;10.40;;;;;;;-0.43;76.47;99917.96;107443;1254;59692;-39
2023/12/08 11:26:46;;;;;;;16.30;11.20;;;;;;;-0.40;76.34;99919.72;107410;1251;72490;-39
2023/12/08 11:30:01;;;;;;;16.70;11.90;;;;;;;-0.44;76.39;99925.38;107459;1254;68535;-39
2023/12/08 11:32:40;;;;;;;18.50;12.20;;;;;;;-0.49;76.48;99924.77;107349;1252;72809;-40
2023/12/08 11:35:12;;;;;;;14.60;9.90;;;;;;;-0.51;76.76;99920.34;107515;1257;60927;-39
2023/12/08 11:37:41;;;;;;;15.90;10.90;;;;;;;-0.45;76.52;99916.69;107513;1252;60556;-39
2023/12/08 11:40:12;;;;;;;18.60;13.00;;;;;;;-0.45;76.79;99916.06;107448;1254;72565;-39
2023/12/08 11:42:42;;;;;;;21.10;13.30;;;;;;;-0.48;76.81;99913.73;107520;1254;68111;-39
2023/12/08 11:45:13;;;;;;;17.90;11.80;;;;;;;-0.51;76.98;99912.04;107495;1254;72883;-39
2023/12/08 11:47:43;;;;;;;20.50;13.20;;;;;;;-0.48;77.24;99910.21;107445;1257;60896;-39
2023/12/08 11:50:11;;;;;;;25.10;15.80;;;;;;;-0.41;77.15;99910.50;107445;1254;60344;-39
2023/12/08 11:52:41;;;;;;;25.20;14.70;;;;;;;-0.39;77.35;99910.40;107467;1252;73188;-39
2023/12/08 11:55:15;;;;;;;23.00;14.80;;;;;;;-0.40;77.08;99913.97;107443;1257;67198;-39
2023/12/08 11:58:01;;;;;;;21.90;13.60;;;;;;;-0.41;76.95;99914.44;107426;1253;71503;-39
2023/12/08 12:00:30;;;;;;;20.80;12.90;;;;;;;-0.34;76.81;99909.45;107315;1257;171301;-39
2023/12/08 12:04:01;;;;;;;21.30;13.40;;;;;;;-0.31;76.92;99907.52;104044;1293;600675;-38
2023/12/08 12:06:30;;;;;;;17.90;13.30;;;;;;;-0.38;76.61;99907.67;106654;1267;59445;-38
2023/12/08 12:08:59;;;;;;;19.00;12.60;;;;;;;-0.40;76.95;99912.05;106414;1267;60185;-38
2023/12/08 12:11:52;;;;;;;16.60;11.40;;;;;;;-0.34;77.00;99910.27;106539;1267;72239;-38
2023/12/08 12:14:20;;;;;;;15.90;11.30;;;;;;;-0.25;76.58;99909.05;106399;1270;68082;-38
2023/12/08 12:16:48;;;;;;;16.60;11.40;;;;;;;-0.25;76.63;99915.70;106374;1264;168070;-38
2023/12/08 12:19:15;;;;;;;18.50;12.00;;;;;;;-0.25;76.73;99915.13;106662;1266;59463;-38
2023/12/08 12:21:43;;;;;;;15.50;11.70;;;;;;;-0.26;76.68;99913.27;106667;1263;60031;-38
2023/12/08 12:24:11;;;;;;;16.60;10.80;;;;;;;-0.24;76.28;99913.35;106731;1263;72251;-38
2023/12/08 12:26:38;;;;;;;16.20;11.20;;;;;;;-0.21;76.01;99915.20;106722;1269;67588;-38
2023/12/08 12:29:06;;;;;;;16.30;11.40;;;;;;;-0.21;76.35;99916.16;106663;1267;71821;-38
2023/12/08 12:31:33;;;;;;;17.70;11.80;;;;;;;-0.24;76.14;99919.85;106687;1263;59493;-38
2023/12/08 12:34:02;;;;;;;16.30;11.60;;;;;;;-0.29;76.02;99918.75;105641;1263;1003547;-38
2023/12/08 12:36:29;;;;;;;16.90;12.10;;;;;;;-0.36;75.76;99914.69;106616;1263;73105;-38
2023/12/08 12:38:57;;;;;;;16.70;10.90;;;;;;;-0.37;75.84;99918.25;106693;1263;66612;-38
2023/12/08 12:41:25;;;;;;;15.40;11.10;;;;;;;-0.42;76.16;99917.11;106696;1264;74925;-38
2023/12/08 12:43:56;;;;;;;18.70;13.10;;;;;;;-0.49;76.28;99916.29;106637;1263;59638;-39
2023/12/08 12:46:27;;;;;;;15.90;11.50;;;;;;;-0.54;76.57;99911.67;106618;1264;59663;-38
2023/12/08 12:48:54;;;;;;;16.10;11.20;;;;;;;-0.52;76.70;99912.47;106639;1263;73177;-38
2023/12/08 12:51:36;;;;;;;14.80;11.00;;;;;;;-0.46;76.45;99912.39;106697;1269;67668;-38
2023/12/08 12:54:04;;;;;;;16.50;11.30;;;;;;;-0.47;76.90;99909.47;106683;1263;70686;-38
2023/12/08 12:56:32;;;;;;;16.00;11.80;;;;;;;-0.48;76.73;99909.99;106672;1266;60900;-38
2023/12/08 12:59:12;;;;;;;17.90;11.90;;;;;;;-0.51;76.61;99911.49;106650;1263;60081;-38
2023/12/08 13:01:41;;;;;;;14.20;10.40;;;;;;;-0.53;76.69;99911.98;106592;1264;73417;-38
2023/12/08 13:04:09;;;;;;;15.60;10.80;;;;;;;-0.50;76.39;99914.44;106658;1263;65462;-38
2023/12/08 13:06:36;;;;;;;14.80;10.80;;;;;;;-0.51;76.51;99920.40;106636;1267;70820;-38
2023/12/08 13:09:09;;;;;;;17.40;12.00;;;;;;;-0.52;76.66;99918.69;106663;1264;59702;-38
2023/12/08 13:11:37;;;;;;;15.60;11.70;;;;;;;-0.55;76.66;99920.58;106616;1263;59551;-38
2023/12/08 13:14:04;;;;;;;17.10;10.90;;;;;;;-0.58;76.18;99925.71;106591;1266;73204;-38
2023/12/08 13:16:32;;;;;;;16.20;11.30;;;;;;;-0.53;76.18;99929.67;106656;1264;70219;-38
2023/12/08 13:19:00;;;;;;;18.90;12.30;;;;;;;-0.50;76.18;99925.66;106651;1264;72453;-38
2023/12/08 13:21:28;;;;;;;17.30;12.20;;;;;;;-0.55;76.09;99927.07;106558;1265;60257;-38
2023/12/08 13:23:56;;;;;;;19.40;12.80;;;;;;;-0.61;76.32;99926.09;106568;1265;59548;-38
2023/12/08 13:26:23;;;;;;;16.70;12.00;;;;;;;-0.69;76.29;99925.63;106650;1267;75321;-38
2023/12/08 13:28:51;;;;;;;16.50;11.50;;;;;;;-0.69;76.24;99929.89;106696;1267;66109;-38
2023/12/08 13:31:19;;;;;;;17.40;12.50;;;;;;;-0.65;76.35;99934.20;106657;1266;72806;-38
2023/12/08 13:33:46;;;;;;;17.50;12.30;;;;;;;-0.67;76.40;99939.05;106668;1266;59733;-38
2023/12/08 13:36:15;;;;;;;20.70;13.30;;;;;;;-0.70;76.60;99944.16;106664;1265;59544;-38
2023/12/08 13:38:42;;;;;;;18.60;12.60;;;;;;;-0.73;76.79;99938.95;106633;1270;73198;-38
2023/12/08 13:41:10;;;;;;;22.00;13.20;;;;;;;-0.69;76.94;99941.98;106656;1266;67658;-38
2023/12/08 13:43:38;;;;;;;20.10;13.20;;;;;;;-0.58;76.69;99949.52;106652;1266;72753;-38